sensor_id;sensor_type;location;lat;lon;timestamp;P1;durP1;ratioP1;P2;durP2;ratioP2
75234;SDS011;63817;51.228;-1.472;2023-03-31T00:01:23;29.08;;;4.75;;
75234;SDS011;63817;51.228;-1.472;2023-03-31T00:03:49;37.80;;;5.82;;
75234;SDS011;63817;51.228;-1.472;2023-03-31T00:06:15;33.22;;;4.80;;
75234;SDS011;63817;51.228;-1.472;2023-03-31T00:08:43;34.40;;;6.07;;
75234;SDS011;63817;51.228;-1.472;2023-03-31T00:11:09;44.17;;;5.32;;
75234;SDS011;63817;51.228;-1.472;2023-03-31T00:13:35;45.88;;;5.95;;
75234;SDS011;63817;51.228;-1.472;2023-03-31T00:16:05;42.47;;;6.45;;
75234;SDS011;63817;51.228;-1.472;2023-03-31T00:18:32;44.95;;;6.10;;
75234;SDS011;63817;51.228;-1.472;2023-03-31T00:21:05;35.50;;;5.50;;
75234;SDS011;63817;51.228;-1.472;2023-03-31T00:23:32;53.28;;;6.00;;
75234;SDS011;63817;51.228;-1.472;2023-03-31T00:25:57;34.75;;;4.10;;
75234;SDS011;63817;51.228;-1.472;2023-03-31T00:28:23;38.58;;;5.50;;
75234;SDS011;63817;51.228;-1.472;2023-03-31T00:30:49;30.17;;;5.25;;
75234;SDS011;63817;51.228;-1.472;2023-03-31T00:33:15;44.70;;;6.05;;
75234;SDS011;63817;51.228;-1.472;2023-03-31T00:35:41;29.13;;;6.38;;
75234;SDS011;63817;51.228;-1.472;2023-03-31T00:38:07;40.88;;;5.88;;
75234;SDS011;63817;51.228;-1.472;2023-03-31T00:40:33;44.08;;;5.15;;
75234;SDS011;63817;51.228;-1.472;2023-03-31T00:42:59;56.80;;;5.35;;
75234;SDS011;63817;51.228;-1.472;2023-03-31T00:45:26;44.63;;;6.60;;
75234;SDS011;63817;51.228;-1.472;2023-03-31T00:50:34;43.95;;;6.10;;
75234;SDS011;63817;51.228;-1.472;2023-03-31T00:53:06;35.00;;;6.00;;
75234;SDS011;63817;51.228;-1.472;2023-03-31T00:55:37;51.22;;;6.18;;
75234;SDS011;63817;51.228;-1.472;2023-03-31T00:58:05;39.53;;;7.20;;
75234;SDS011;63817;51.228;-1.472;2023-03-31T01:00:31;44.05;;;7.32;;
75234;SDS011;63817;51.228;-1.472;2023-03-31T01:02:57;61.63;;;8.10;;
75234;SDS011;63817;51.228;-1.472;2023-03-31T01:05:32;50.47;;;7.05;;
75234;SDS011;63817;51.228;-1.472;2023-03-31T01:08:00;43.83;;;5.95;;
75234;SDS011;63817;51.228;-1.472;2023-03-31T01:10:26;29.33;;;5.28;;
75234;SDS011;63817;51.228;-1.472;2023-03-31T01:12:53;33.10;;;4.70;;
75234;SDS011;63817;51.228;-1.472;2023-03-31T01:15:20;36.05;;;5.53;;
75234;SDS011;63817;51.228;-1.472;2023-03-31T01:17:46;40.92;;;5.32;;
75234;SDS011;63817;51.228;-1.472;2023-03-31T01:23:05;40.53;;;5.88;;
75234;SDS011;63817;51.228;-1.472;2023-03-31T01:28:37;48.20;;;6.03;;
75234;SDS011;63817;51.228;-1.472;2023-03-31T01:31:12;34.35;;;5.13;;
75234;SDS011;63817;51.228;-1.472;2023-03-31T01:34:13;35.03;;;4.95;;
75234;SDS011;63817;51.228;-1.472;2023-03-31T01:42:27;56.70;;;7.88;;
75234;SDS011;63817;51.228;-1.472;2023-03-31T01:45:18;67.57;;;9.80;;
75234;SDS011;63817;51.228;-1.472;2023-03-31T01:47:54;65.03;;;9.82;;
75234;SDS011;63817;51.228;-1.472;2023-03-31T01:55:35;76.95;;;10.65;;
75234;SDS011;63817;51.228;-1.472;2023-03-31T01:58:07;72.65;;;9.98;;
75234;SDS011;63817;51.228;-1.472;2023-03-31T02:00:39;50.75;;;7.30;;
75234;SDS011;63817;51.228;-1.472;2023-03-31T02:03:14;62.95;;;8.85;;
75234;SDS011;63817;51.228;-1.472;2023-03-31T02:05:45;62.15;;;7.28;;
75234;SDS011;63817;51.228;-1.472;2023-03-31T02:08:13;60.08;;;8.60;;
75234;SDS011;63817;51.228;-1.472;2023-03-31T02:10:42;53.50;;;6.97;;
75234;SDS011;63817;51.228;-1.472;2023-03-31T02:13:08;59.60;;;8.63;;
75234;SDS011;63817;51.228;-1.472;2023-03-31T02:15:36;69.60;;;8.95;;
75234;SDS011;63817;51.228;-1.472;2023-03-31T02:18:05;62.75;;;9.85;;
75234;SDS011;63817;51.228;-1.472;2023-03-31T02:20:35;67.43;;;9.60;;
75234;SDS011;63817;51.228;-1.472;2023-03-31T02:23:03;64.55;;;10.27;;
75234;SDS011;63817;51.228;-1.472;2023-03-31T02:25:31;78.18;;;10.35;;
75234;SDS011;63817;51.228;-1.472;2023-03-31T02:28:05;58.40;;;7.95;;
75234;SDS011;63817;51.228;-1.472;2023-03-31T02:30:45;64.90;;;8.70;;
75234;SDS011;63817;51.228;-1.472;2023-03-31T02:33:17;50.65;;;7.53;;
75234;SDS011;63817;51.228;-1.472;2023-03-31T02:35:43;43.38;;;7.63;;
75234;SDS011;63817;51.228;-1.472;2023-03-31T02:38:08;63.28;;;9.52;;
75234;SDS011;63817;51.228;-1.472;2023-03-31T02:40:35;61.33;;;8.77;;
75234;SDS011;63817;51.228;-1.472;2023-03-31T02:43:01;64.35;;;7.18;;
75234;SDS011;63817;51.228;-1.472;2023-03-31T02:56:17;52.38;;;6.60;;
75234;SDS011;63817;51.228;-1.472;2023-03-31T02:58:56;55.88;;;8.25;;
75234;SDS011;63817;51.228;-1.472;2023-03-31T03:09:57;53.90;;;7.97;;
75234;SDS011;63817;51.228;-1.472;2023-03-31T03:12:41;56.42;;;8.98;;
75234;SDS011;63817;51.228;-1.472;2023-03-31T03:15:12;44.30;;;7.07;;
75234;SDS011;63817;51.228;-1.472;2023-03-31T03:17:59;43.42;;;6.78;;
75234;SDS011;63817;51.228;-1.472;2023-03-31T03:20:25;58.85;;;9.18;;
75234;SDS011;63817;51.228;-1.472;2023-03-31T03:22:50;52.83;;;9.68;;
75234;SDS011;63817;51.228;-1.472;2023-03-31T03:25:16;47.63;;;6.82;;
75234;SDS011;63817;51.228;-1.472;2023-03-31T03:27:42;58.35;;;7.97;;
75234;SDS011;63817;51.228;-1.472;2023-03-31T03:30:08;58.72;;;6.90;;
75234;SDS011;63817;51.228;-1.472;2023-03-31T03:32:35;53.92;;;7.95;;
75234;SDS011;63817;51.228;-1.472;2023-03-31T03:35:01;45.17;;;7.07;;
75234;SDS011;63817;51.228;-1.472;2023-03-31T03:37:28;48.58;;;6.63;;
75234;SDS011;63817;51.228;-1.472;2023-03-31T03:39:54;43.08;;;6.22;;
75234;SDS011;63817;51.228;-1.472;2023-03-31T03:42:19;62.97;;;7.55;;
75234;SDS011;63817;51.228;-1.472;2023-03-31T03:44:45;50.33;;;8.13;;
75234;SDS011;63817;51.228;-1.472;2023-03-31T03:47:10;65.95;;;7.90;;
75234;SDS011;63817;51.228;-1.472;2023-03-31T03:49:35;50.08;;;6.93;;
75234;SDS011;63817;51.228;-1.472;2023-03-31T03:52:01;63.80;;;8.98;;
75234;SDS011;63817;51.228;-1.472;2023-03-31T03:54:27;43.45;;;7.03;;
75234;SDS011;63817;51.228;-1.472;2023-03-31T03:56:52;58.47;;;6.82;;
75234;SDS011;63817;51.228;-1.472;2023-03-31T03:59:17;58.80;;;7.60;;
75234;SDS011;63817;51.228;-1.472;2023-03-31T04:01:43;54.78;;;8.32;;
75234;SDS011;63817;51.228;-1.472;2023-03-31T04:04:08;46.45;;;7.10;;
75234;SDS011;63817;51.228;-1.472;2023-03-31T04:06:34;48.63;;;6.65;;
75234;SDS011;63817;51.228;-1.472;2023-03-31T04:08:59;55.85;;;7.68;;
75234;SDS011;63817;51.228;-1.472;2023-03-31T04:11:25;58.40;;;8.43;;
75234;SDS011;63817;51.228;-1.472;2023-03-31T04:13:50;45.25;;;8.15;;
75234;SDS011;63817;51.228;-1.472;2023-03-31T04:16:15;55.15;;;6.68;;
75234;SDS011;63817;51.228;-1.472;2023-03-31T04:18:41;45.22;;;6.97;;
75234;SDS011;63817;51.228;-1.472;2023-03-31T04:21:12;56.28;;;6.32;;
75234;SDS011;63817;51.228;-1.472;2023-03-31T04:23:49;47.50;;;7.80;;
75234;SDS011;63817;51.228;-1.472;2023-03-31T04:26:26;51.70;;;7.07;;
75234;SDS011;63817;51.228;-1.472;2023-03-31T04:28:56;48.22;;;5.82;;
75234;SDS011;63817;51.228;-1.472;2023-03-31T04:31:24;48.60;;;6.90;;
75234;SDS011;63817;51.228;-1.472;2023-03-31T04:33:53;50.50;;;6.28;;
75234;SDS011;63817;51.228;-1.472;2023-03-31T04:36:19;46.58;;;6.85;;
75234;SDS011;63817;51.228;-1.472;2023-03-31T04:38:46;36.13;;;5.25;;
75234;SDS011;63817;51.228;-1.472;2023-03-31T04:41:14;41.08;;;6.50;;
75234;SDS011;63817;51.228;-1.472;2023-03-31T04:43:40;33.78;;;4.35;;
75234;SDS011;63817;51.228;-1.472;2023-03-31T04:46:06;35.88;;;4.60;;
75234;SDS011;63817;51.228;-1.472;2023-03-31T04:48:31;38.80;;;5.18;;
75234;SDS011;63817;51.228;-1.472;2023-03-31T04:50:57;35.58;;;4.50;;
75234;SDS011;63817;51.228;-1.472;2023-03-31T04:53:22;29.77;;;4.20;;
75234;SDS011;63817;51.228;-1.472;2023-03-31T04:55:48;32.90;;;4.20;;
75234;SDS011;63817;51.228;-1.472;2023-03-31T04:58:14;39.95;;;4.95;;
75234;SDS011;63817;51.228;-1.472;2023-03-31T05:00:39;49.88;;;5.72;;
75234;SDS011;63817;51.228;-1.472;2023-03-31T05:03:05;38.72;;;4.82;;
75234;SDS011;63817;51.228;-1.472;2023-03-31T05:05:31;49.00;;;6.00;;
75234;SDS011;63817;51.228;-1.472;2023-03-31T05:07:56;51.08;;;6.35;;
75234;SDS011;63817;51.228;-1.472;2023-03-31T05:10:22;43.70;;;6.28;;
75234;SDS011;63817;51.228;-1.472;2023-03-31T05:12:47;39.92;;;6.43;;
75234;SDS011;63817;51.228;-1.472;2023-03-31T05:15:13;37.10;;;6.47;;
75234;SDS011;63817;51.228;-1.472;2023-03-31T05:17:38;45.05;;;6.72;;
75234;SDS011;63817;51.228;-1.472;2023-03-31T05:20:04;47.58;;;6.28;;
75234;SDS011;63817;51.228;-1.472;2023-03-31T05:22:32;39.42;;;6.25;;
75234;SDS011;63817;51.228;-1.472;2023-03-31T05:25:04;48.60;;;6.72;;
75234;SDS011;63817;51.228;-1.472;2023-03-31T05:27:31;49.50;;;6.60;;
75234;SDS011;63817;51.228;-1.472;2023-03-31T05:29:57;44.90;;;7.05;;
75234;SDS011;63817;51.228;-1.472;2023-03-31T05:32:22;52.88;;;7.13;;
75234;SDS011;63817;51.228;-1.472;2023-03-31T05:34:48;34.30;;;5.45;;
75234;SDS011;63817;51.228;-1.472;2023-03-31T05:37:16;49.30;;;6.57;;
75234;SDS011;63817;51.228;-1.472;2023-03-31T05:39:44;34.55;;;5.28;;
75234;SDS011;63817;51.228;-1.472;2023-03-31T05:42:10;42.63;;;5.80;;
75234;SDS011;63817;51.228;-1.472;2023-03-31T05:44:36;36.42;;;6.75;;
75234;SDS011;63817;51.228;-1.472;2023-03-31T05:47:01;38.20;;;7.10;;
75234;SDS011;63817;51.228;-1.472;2023-03-31T05:49:27;48.70;;;6.95;;
75234;SDS011;63817;51.228;-1.472;2023-03-31T05:51:52;52.17;;;6.07;;
75234;SDS011;63817;51.228;-1.472;2023-03-31T05:54:18;50.28;;;7.47;;
75234;SDS011;63817;51.228;-1.472;2023-03-31T05:56:43;45.08;;;6.30;;
75234;SDS011;63817;51.228;-1.472;2023-03-31T05:59:09;49.70;;;7.43;;
75234;SDS011;63817;51.228;-1.472;2023-03-31T06:01:34;39.00;;;6.60;;
75234;SDS011;63817;51.228;-1.472;2023-03-31T06:03:59;43.20;;;5.68;;
75234;SDS011;63817;51.228;-1.472;2023-03-31T06:06:25;47.95;;;6.82;;
75234;SDS011;63817;51.228;-1.472;2023-03-31T06:08:51;59.08;;;7.10;;
75234;SDS011;63817;51.228;-1.472;2023-03-31T06:11:18;47.63;;;6.95;;
75234;SDS011;63817;51.228;-1.472;2023-03-31T06:13:45;47.65;;;5.13;;
75234;SDS011;63817;51.228;-1.472;2023-03-31T06:16:11;48.55;;;5.95;;
75234;SDS011;63817;51.228;-1.472;2023-03-31T06:18:37;47.40;;;7.50;;
75234;SDS011;63817;51.228;-1.472;2023-03-31T06:21:03;42.83;;;5.47;;
75234;SDS011;63817;51.228;-1.472;2023-03-31T06:23:29;43.92;;;5.47;;
75234;SDS011;63817;51.228;-1.472;2023-03-31T06:25:58;44.03;;;6.47;;
75234;SDS011;63817;51.228;-1.472;2023-03-31T06:28:26;47.33;;;6.22;;
75234;SDS011;63817;51.228;-1.472;2023-03-31T06:30:58;40.53;;;5.03;;
75234;SDS011;63817;51.228;-1.472;2023-03-31T06:33:24;39.13;;;6.30;;
75234;SDS011;63817;51.228;-1.472;2023-03-31T06:35:49;47.72;;;7.00;;
75234;SDS011;63817;51.228;-1.472;2023-03-31T06:38:15;45.35;;;6.15;;
75234;SDS011;63817;51.228;-1.472;2023-03-31T06:40:40;49.38;;;6.75;;
75234;SDS011;63817;51.228;-1.472;2023-03-31T06:43:06;44.90;;;5.82;;
75234;SDS011;63817;51.228;-1.472;2023-03-31T06:45:31;40.65;;;6.47;;
75234;SDS011;63817;51.228;-1.472;2023-03-31T06:47:57;45.40;;;7.78;;
75234;SDS011;63817;51.228;-1.472;2023-03-31T06:50:22;44.90;;;5.30;;
75234;SDS011;63817;51.228;-1.472;2023-03-31T06:52:48;37.75;;;5.63;;
75234;SDS011;63817;51.228;-1.472;2023-03-31T06:55:16;28.30;;;5.25;;
75234;SDS011;63817;51.228;-1.472;2023-03-31T06:57:42;37.65;;;7.32;;
75234;SDS011;63817;51.228;-1.472;2023-03-31T07:00:07;24.80;;;4.07;;
75234;SDS011;63817;51.228;-1.472;2023-03-31T07:02:33;27.73;;;3.90;;
75234;SDS011;63817;51.228;-1.472;2023-03-31T07:05:00;33.30;;;5.10;;
75234;SDS011;63817;51.228;-1.472;2023-03-31T07:07:26;34.95;;;5.50;;
75234;SDS011;63817;51.228;-1.472;2023-03-31T07:09:51;156.13;;;11.35;;
75234;SDS011;63817;51.228;-1.472;2023-03-31T07:12:16;62.63;;;5.95;;
75234;SDS011;63817;51.228;-1.472;2023-03-31T07:14:42;35.63;;;5.15;;
75234;SDS011;63817;51.228;-1.472;2023-03-31T07:17:07;37.45;;;5.10;;
75234;SDS011;63817;51.228;-1.472;2023-03-31T07:19:33;41.33;;;5.63;;
75234;SDS011;63817;51.228;-1.472;2023-03-31T07:22:01;61.75;;;6.50;;
75234;SDS011;63817;51.228;-1.472;2023-03-31T07:24:27;47.60;;;6.05;;
75234;SDS011;63817;51.228;-1.472;2023-03-31T07:26:54;39.83;;;6.15;;
75234;SDS011;63817;51.228;-1.472;2023-03-31T07:29:19;44.35;;;7.07;;
75234;SDS011;63817;51.228;-1.472;2023-03-31T07:31:45;36.10;;;6.03;;
75234;SDS011;63817;51.228;-1.472;2023-03-31T07:34:11;33.55;;;4.80;;
75234;SDS011;63817;51.228;-1.472;2023-03-31T07:36:37;33.28;;;4.43;;
75234;SDS011;63817;51.228;-1.472;2023-03-31T07:39:04;31.35;;;4.85;;
75234;SDS011;63817;51.228;-1.472;2023-03-31T07:41:30;22.30;;;4.47;;
75234;SDS011;63817;51.228;-1.472;2023-03-31T07:43:55;28.15;;;3.60;;
75234;SDS011;63817;51.228;-1.472;2023-03-31T07:46:22;26.05;;;3.50;;
75234;SDS011;63817;51.228;-1.472;2023-03-31T07:48:49;20.27;;;3.63;;
75234;SDS011;63817;51.228;-1.472;2023-03-31T07:51:16;96.25;;;7.93;;
75234;SDS011;63817;51.228;-1.472;2023-03-31T07:53:43;17.17;;;3.05;;
75234;SDS011;63817;51.228;-1.472;2023-03-31T07:56:27;17.67;;;2.58;;
75234;SDS011;63817;51.228;-1.472;2023-03-31T07:58:52;23.08;;;3.05;;
75234;SDS011;63817;51.228;-1.472;2023-03-31T08:01:19;197.82;;;10.13;;
75234;SDS011;63817;51.228;-1.472;2023-03-31T08:03:46;14.95;;;2.15;;
75234;SDS011;63817;51.228;-1.472;2023-03-31T08:06:16;15.25;;;2.58;;
75234;SDS011;63817;51.228;-1.472;2023-03-31T08:08:47;11.70;;;1.90;;
75234;SDS011;63817;51.228;-1.472;2023-03-31T08:11:13;10.93;;;2.10;;
75234;SDS011;63817;51.228;-1.472;2023-03-31T08:13:38;11.95;;;2.05;;
75234;SDS011;63817;51.228;-1.472;2023-03-31T08:16:04;10.07;;;2.10;;
75234;SDS011;63817;51.228;-1.472;2023-03-31T08:18:29;9.88;;;2.38;;
75234;SDS011;63817;51.228;-1.472;2023-03-31T08:20:55;8.55;;;1.98;;
75234;SDS011;63817;51.228;-1.472;2023-03-31T08:23:20;14.25;;;2.10;;
75234;SDS011;63817;51.228;-1.472;2023-03-31T08:25:45;10.32;;;1.73;;
75234;SDS011;63817;51.228;-1.472;2023-03-31T08:28:11;13.80;;;1.50;;
75234;SDS011;63817;51.228;-1.472;2023-03-31T08:30:38;6.88;;;1.60;;
75234;SDS011;63817;51.228;-1.472;2023-03-31T08:33:05;7.28;;;1.40;;
75234;SDS011;63817;51.228;-1.472;2023-03-31T08:35:36;7.65;;;1.40;;
75234;SDS011;63817;51.228;-1.472;2023-03-31T08:38:02;12.40;;;1.88;;
75234;SDS011;63817;51.228;-1.472;2023-03-31T08:40:28;11.13;;;1.65;;
75234;SDS011;63817;51.228;-1.472;2023-03-31T08:45:37;7.13;;;1.10;;
75234;SDS011;63817;51.228;-1.472;2023-03-31T08:50:47;12.45;;;1.90;;
75234;SDS011;63817;51.228;-1.472;2023-03-31T08:53:32;13.45;;;2.28;;
75234;SDS011;63817;51.228;-1.472;2023-03-31T08:55:59;9.10;;;1.52;;
75234;SDS011;63817;51.228;-1.472;2023-03-31T08:58:37;11.02;;;1.65;;
75234;SDS011;63817;51.228;-1.472;2023-03-31T09:01:12;14.90;;;2.25;;
75234;SDS011;63817;51.228;-1.472;2023-03-31T09:06:40;9.70;;;2.00;;
75234;SDS011;63817;51.228;-1.472;2023-03-31T09:09:09;13.32;;;2.28;;
75234;SDS011;63817;51.228;-1.472;2023-03-31T09:11:37;5.28;;;1.40;;
75234;SDS011;63817;51.228;-1.472;2023-03-31T09:16:56;7.13;;;1.65;;
75234;SDS011;63817;51.228;-1.472;2023-03-31T09:20:10;7.05;;;1.80;;
75234;SDS011;63817;51.228;-1.472;2023-03-31T09:22:21;3.53;;;1.65;;
75234;SDS011;63817;51.228;-1.472;2023-03-31T09:25:00;8.00;;;1.67;;
75234;SDS011;63817;51.228;-1.472;2023-03-31T09:27:30;12.20;;;2.20;;
75234;SDS011;63817;51.228;-1.472;2023-03-31T09:30:01;5.53;;;1.55;;
75234;SDS011;63817;51.228;-1.472;2023-03-31T09:32:51;8.20;;;1.70;;
75234;SDS011;63817;51.228;-1.472;2023-03-31T09:35:23;5.88;;;1.00;;
75234;SDS011;63817;51.228;-1.472;2023-03-31T09:37:50;4.45;;;1.10;;
75234;SDS011;63817;51.228;-1.472;2023-03-31T09:40:21;8.00;;;1.20;;
75234;SDS011;63817;51.228;-1.472;2023-03-31T09:42:50;3.35;;;1.00;;
75234;SDS011;63817;51.228;-1.472;2023-03-31T09:45:44;1.50;;;0.65;;
75234;SDS011;63817;51.228;-1.472;2023-03-31T09:48:14;3.28;;;1.00;;
75234;SDS011;63817;51.228;-1.472;2023-03-31T09:50:45;2.38;;;0.73;;
75234;SDS011;63817;51.228;-1.472;2023-03-31T09:53:14;3.03;;;0.70;;
75234;SDS011;63817;51.228;-1.472;2023-03-31T09:55:44;1.98;;;0.65;;
75234;SDS011;63817;51.228;-1.472;2023-03-31T09:58:15;5.75;;;1.45;;
75234;SDS011;63817;51.228;-1.472;2023-03-31T10:00:41;5.47;;;1.05;;
75234;SDS011;63817;51.228;-1.472;2023-03-31T10:03:12;7.22;;;1.13;;
75234;SDS011;63817;51.228;-1.472;2023-03-31T10:05:38;6.68;;;1.30;;
75234;SDS011;63817;51.228;-1.472;2023-03-31T10:10:44;4.75;;;1.80;;
75234;SDS011;63817;51.228;-1.472;2023-03-31T10:13:14;3.35;;;1.52;;
75234;SDS011;63817;51.228;-1.472;2023-03-31T10:15:41;6.25;;;1.63;;
75234;SDS011;63817;51.228;-1.472;2023-03-31T10:18:14;4.97;;;2.00;;
75234;SDS011;63817;51.228;-1.472;2023-03-31T10:20:48;9.57;;;2.30;;
75234;SDS011;63817;51.228;-1.472;2023-03-31T10:23:15;2.65;;;1.33;;
75234;SDS011;63817;51.228;-1.472;2023-03-31T10:26:01;5.18;;;1.58;;
75234;SDS011;63817;51.228;-1.472;2023-03-31T10:28:30;2.55;;;1.13;;
75234;SDS011;63817;51.228;-1.472;2023-03-31T10:30:57;2.00;;;1.00;;
75234;SDS011;63817;51.228;-1.472;2023-03-31T10:33:28;3.70;;;1.00;;
75234;SDS011;63817;51.228;-1.472;2023-03-31T10:36:06;2.30;;;1.00;;
75234;SDS011;63817;51.228;-1.472;2023-03-31T10:38:36;4.38;;;1.13;;
75234;SDS011;63817;51.228;-1.472;2023-03-31T10:41:06;4.53;;;1.10;;
75234;SDS011;63817;51.228;-1.472;2023-03-31T10:43:42;5.55;;;1.35;;
75234;SDS011;63817;51.228;-1.472;2023-03-31T10:46:11;6.00;;;1.90;;
75234;SDS011;63817;51.228;-1.472;2023-03-31T10:48:37;2.70;;;1.40;;
75234;SDS011;63817;51.228;-1.472;2023-03-31T10:53:40;6.38;;;1.85;;
75234;SDS011;63817;51.228;-1.472;2023-03-31T11:03:49;3.03;;;1.00;;
75234;SDS011;63817;51.228;-1.472;2023-03-31T11:06:25;6.20;;;1.15;;
75234;SDS011;63817;51.228;-1.472;2023-03-31T11:09:02;5.30;;;1.30;;
75234;SDS011;63817;51.228;-1.472;2023-03-31T11:11:33;1.60;;;0.77;;
75234;SDS011;63817;51.228;-1.472;2023-03-31T11:14:19;2.03;;;0.80;;
75234;SDS011;63817;51.228;-1.472;2023-03-31T11:17:02;5.57;;;1.20;;
75234;SDS011;63817;51.228;-1.472;2023-03-31T11:22:24;4.57;;;1.00;;
75234;SDS011;63817;51.228;-1.472;2023-03-31T11:30:36;1.48;;;0.73;;
75234;SDS011;63817;51.228;-1.472;2023-03-31T11:40:59;4.40;;;0.70;;
75234;SDS011;63817;51.228;-1.472;2023-03-31T11:43:29;0.93;;;0.68;;
75234;SDS011;63817;51.228;-1.472;2023-03-31T11:46:34;2.17;;;0.65;;
75234;SDS011;63817;51.228;-1.472;2023-03-31T11:49:13;1.35;;;0.68;;
75234;SDS011;63817;51.228;-1.472;2023-03-31T11:51:56;0.85;;;0.52;;
75234;SDS011;63817;51.228;-1.472;2023-03-31T11:54:28;3.08;;;0.85;;
75234;SDS011;63817;51.228;-1.472;2023-03-31T11:57:13;3.17;;;1.23;;
75234;SDS011;63817;51.228;-1.472;2023-03-31T11:59:41;4.03;;;1.00;;
75234;SDS011;63817;51.228;-1.472;2023-03-31T12:02:17;3.22;;;0.70;;
75234;SDS011;63817;51.228;-1.472;2023-03-31T12:04:47;4.68;;;1.17;;
75234;SDS011;63817;51.228;-1.472;2023-03-31T12:12:17;2.03;;;0.70;;
75234;SDS011;63817;51.228;-1.472;2023-03-31T12:17:27;0.73;;;0.60;;
75234;SDS011;63817;51.228;-1.472;2023-03-31T12:22:28;0.95;;;0.50;;
75234;SDS011;63817;51.228;-1.472;2023-03-31T12:24:55;2.70;;;0.77;;
75234;SDS011;63817;51.228;-1.472;2023-03-31T12:27:42;3.00;;;0.90;;
75234;SDS011;63817;51.228;-1.472;2023-03-31T12:32:36;2.15;;;0.70;;
75234;SDS011;63817;51.228;-1.472;2023-03-31T12:35:06;2.63;;;0.70;;
75234;SDS011;63817;51.228;-1.472;2023-03-31T12:45:54;1.83;;;0.93;;
75234;SDS011;63817;51.228;-1.472;2023-03-31T12:55:03;2.50;;;1.05;;
75234;SDS011;63817;51.228;-1.472;2023-03-31T12:57:02;5.07;;;0.73;;
75234;SDS011;63817;51.228;-1.472;2023-03-31T12:59:42;1.98;;;0.70;;
75234;SDS011;63817;51.228;-1.472;2023-03-31T13:04:34;6.72;;;1.00;;
75234;SDS011;63817;51.228;-1.472;2023-03-31T13:07:01;2.63;;;0.80;;
75234;SDS011;63817;51.228;-1.472;2023-03-31T13:11:55;1.42;;;0.57;;
75234;SDS011;63817;51.228;-1.472;2023-03-31T13:14:35;2.58;;;0.80;;
75234;SDS011;63817;51.228;-1.472;2023-03-31T13:17:22;5.97;;;1.23;;
75234;SDS011;63817;51.228;-1.472;2023-03-31T13:19:46;4.28;;;1.48;;
75234;SDS011;63817;51.228;-1.472;2023-03-31T13:27:49;4.35;;;0.98;;
75234;SDS011;63817;51.228;-1.472;2023-03-31T13:33:43;2.38;;;0.90;;
75234;SDS011;63817;51.228;-1.472;2023-03-31T13:45:01;10.40;;;1.10;;
75234;SDS011;63817;51.228;-1.472;2023-03-31T13:47:32;5.63;;;1.38;;
75234;SDS011;63817;51.228;-1.472;2023-03-31T13:55:48;7.43;;;1.55;;
75234;SDS011;63817;51.228;-1.472;2023-03-31T14:06:57;1.92;;;0.80;;
75234;SDS011;63817;51.228;-1.472;2023-03-31T14:09:30;4.78;;;0.95;;
75234;SDS011;63817;51.228;-1.472;2023-03-31T14:15:03;6.78;;;1.00;;
75234;SDS011;63817;51.228;-1.472;2023-03-31T14:17:36;4.88;;;1.25;;
75234;SDS011;63817;51.228;-1.472;2023-03-31T14:26:05;3.88;;;0.88;;
75234;SDS011;63817;51.228;-1.472;2023-03-31T14:39:29;4.70;;;1.33;;
75234;SDS011;63817;51.228;-1.472;2023-03-31T14:42:09;6.10;;;1.30;;
75234;SDS011;63817;51.228;-1.472;2023-03-31T14:44:37;69.25;;;4.13;;
75234;SDS011;63817;51.228;-1.472;2023-03-31T14:47:03;6.95;;;1.65;;
75234;SDS011;63817;51.228;-1.472;2023-03-31T14:52:00;13.40;;;2.88;;
75234;SDS011;63817;51.228;-1.472;2023-03-31T14:54:33;3.65;;;1.27;;
75234;SDS011;63817;51.228;-1.472;2023-03-31T14:56:58;7.57;;;1.50;;
75234;SDS011;63817;51.228;-1.472;2023-03-31T14:59:29;9.90;;;1.77;;
75234;SDS011;63817;51.228;-1.472;2023-03-31T15:01:57;5.85;;;1.25;;
75234;SDS011;63817;51.228;-1.472;2023-03-31T15:04:24;5.95;;;1.25;;
75234;SDS011;63817;51.228;-1.472;2023-03-31T15:06:52;8.20;;;1.33;;
75234;SDS011;63817;51.228;-1.472;2023-03-31T15:09:27;9.80;;;1.40;;
75234;SDS011;63817;51.228;-1.472;2023-03-31T15:11:55;5.60;;;1.10;;
75234;SDS011;63817;51.228;-1.472;2023-03-31T15:14:22;7.72;;;1.25;;
75234;SDS011;63817;51.228;-1.472;2023-03-31T15:16:48;7.43;;;1.55;;
75234;SDS011;63817;51.228;-1.472;2023-03-31T15:19:24;9.27;;;1.60;;
75234;SDS011;63817;51.228;-1.472;2023-03-31T15:22:02;6.88;;;1.27;;
75234;SDS011;63817;51.228;-1.472;2023-03-31T15:24:34;7.57;;;1.23;;
75234;SDS011;63817;51.228;-1.472;2023-03-31T15:27:22;9.57;;;1.80;;
75234;SDS011;63817;51.228;-1.472;2023-03-31T15:29:52;6.68;;;1.30;;
75234;SDS011;63817;51.228;-1.472;2023-03-31T15:32:29;8.10;;;1.45;;
75234;SDS011;63817;51.228;-1.472;2023-03-31T15:34:56;7.00;;;1.23;;
75234;SDS011;63817;51.228;-1.472;2023-03-31T15:37:23;8.57;;;1.65;;
75234;SDS011;63817;51.228;-1.472;2023-03-31T15:39:56;5.85;;;1.30;;
75234;SDS011;63817;51.228;-1.472;2023-03-31T15:42:23;5.45;;;1.73;;
75234;SDS011;63817;51.228;-1.472;2023-03-31T15:47:35;5.55;;;1.23;;
75234;SDS011;63817;51.228;-1.472;2023-03-31T15:52:34;4.32;;;1.40;;
75234;SDS011;63817;51.228;-1.472;2023-03-31T15:55:01;7.85;;;1.20;;
75234;SDS011;63817;51.228;-1.472;2023-03-31T15:57:41;8.07;;;1.45;;
75234;SDS011;63817;51.228;-1.472;2023-03-31T16:00:14;7.20;;;1.50;;
75234;SDS011;63817;51.228;-1.472;2023-03-31T16:03:13;8.70;;;1.15;;
75234;SDS011;63817;51.228;-1.472;2023-03-31T16:05:45;6.22;;;1.27;;
75234;SDS011;63817;51.228;-1.472;2023-03-31T16:08:13;5.57;;;1.67;;
75234;SDS011;63817;51.228;-1.472;2023-03-31T16:10:41;5.82;;;1.45;;
75234;SDS011;63817;51.228;-1.472;2023-03-31T16:13:08;6.55;;;1.13;;
75234;SDS011;63817;51.228;-1.472;2023-03-31T16:15:36;2.83;;;1.17;;
75234;SDS011;63817;51.228;-1.472;2023-03-31T16:18:11;5.03;;;1.10;;
75234;SDS011;63817;51.228;-1.472;2023-03-31T16:20:59;1.70;;;0.80;;
75234;SDS011;63817;51.228;-1.472;2023-03-31T16:23:29;1.67;;;0.65;;
75234;SDS011;63817;51.228;-1.472;2023-03-31T16:25:56;3.22;;;0.90;;
75234;SDS011;63817;51.228;-1.472;2023-03-31T16:28:30;7.57;;;1.55;;
75234;SDS011;63817;51.228;-1.472;2023-03-31T16:30:57;2.33;;;0.93;;
75234;SDS011;63817;51.228;-1.472;2023-03-31T16:33:26;3.22;;;0.60;;
75234;SDS011;63817;51.228;-1.472;2023-03-31T16:35:52;5.20;;;0.80;;
75234;SDS011;63817;51.228;-1.472;2023-03-31T16:38:21;4.43;;;0.68;;
75234;SDS011;63817;51.228;-1.472;2023-03-31T16:40:54;4.38;;;0.80;;
75234;SDS011;63817;51.228;-1.472;2023-03-31T16:43:21;3.53;;;1.08;;
75234;SDS011;63817;51.228;-1.472;2023-03-31T16:45:49;6.53;;;1.63;;
75234;SDS011;63817;51.228;-1.472;2023-03-31T16:48:16;5.20;;;1.10;;
75234;SDS011;63817;51.228;-1.472;2023-03-31T16:50:45;2.63;;;0.60;;
75234;SDS011;63817;51.228;-1.472;2023-03-31T16:53:12;6.30;;;0.82;;
75234;SDS011;63817;51.228;-1.472;2023-03-31T16:55:39;8.77;;;0.90;;
75234;SDS011;63817;51.228;-1.472;2023-03-31T16:58:04;5.63;;;0.85;;
75234;SDS011;63817;51.228;-1.472;2023-03-31T17:00:31;6.70;;;0.95;;
75234;SDS011;63817;51.228;-1.472;2023-03-31T17:03:01;5.10;;;1.33;;
75234;SDS011;63817;51.228;-1.472;2023-03-31T17:05:28;4.72;;;1.02;;
75234;SDS011;63817;51.228;-1.472;2023-03-31T17:07:57;6.85;;;1.23;;
75234;SDS011;63817;51.228;-1.472;2023-03-31T17:10:22;4.50;;;1.10;;
75234;SDS011;63817;51.228;-1.472;2023-03-31T17:12:48;8.48;;;1.30;;
75234;SDS011;63817;51.228;-1.472;2023-03-31T17:15:13;4.85;;;0.80;;
75234;SDS011;63817;51.228;-1.472;2023-03-31T17:17:39;8.00;;;1.83;;
75234;SDS011;63817;51.228;-1.472;2023-03-31T17:20:05;5.82;;;1.20;;
75234;SDS011;63817;51.228;-1.472;2023-03-31T17:22:32;9.65;;;1.30;;
75234;SDS011;63817;51.228;-1.472;2023-03-31T17:24:57;9.68;;;1.33;;
75234;SDS011;63817;51.228;-1.472;2023-03-31T17:27:24;6.32;;;1.35;;
75234;SDS011;63817;51.228;-1.472;2023-03-31T17:29:50;8.38;;;1.35;;